createdAt,value
2023-01-18T00:00:03.232Z,21.30
2023-01-18T00:01:03.183Z,19.30
2023-01-18T00:02:03.238Z,18.60
2023-01-18T00:03:03.151Z,20.00
2023-01-18T00:04:03.145Z,22.00
2023-01-18T00:05:03.178Z,20.80
2023-01-18T00:06:03.103Z,20.60
2023-01-18T00:07:03.123Z,21.40
2023-01-18T00:08:03.083Z,21.00
2023-01-18T00:09:03.107Z,20.50
2023-01-18T00:10:03.082Z,20.50
2023-01-18T00:11:03.045Z,20.20
2023-01-18T00:12:03.037Z,20.00
2023-01-18T00:13:03.053Z,19.00
2023-01-18T00:14:03.001Z,20.20
2023-01-18T00:15:02.996Z,20.20
2023-01-18T00:16:03.039Z,20.10
2023-01-18T00:17:03.003Z,18.70
2023-01-18T00:18:02.969Z,18.30
2023-01-18T00:19:02.969Z,17.90
2023-01-18T00:20:02.951Z,19.60
2023-01-18T00:21:02.953Z,20.40
2023-01-18T00:22:02.902Z,18.80
2023-01-18T00:23:02.919Z,19.70
2023-01-18T00:24:02.884Z,20.10
2023-01-18T00:25:02.886Z,20.80
2023-01-18T00:26:02.886Z,19.20
2023-01-18T00:27:02.865Z,19.90
2023-01-18T00:28:02.845Z,19.30
2023-01-18T00:29:02.820Z,20.00
2023-01-18T00:30:02.843Z,18.10
2023-01-18T00:31:02.816Z,18.90
2023-01-18T00:32:02.776Z,19.20
2023-01-18T00:33:02.767Z,18.70
2023-01-18T00:34:02.799Z,18.10
2023-01-18T00:35:02.743Z,19.00
2023-01-18T00:36:02.775Z,19.50
2023-01-18T00:37:02.729Z,19.30
2023-01-18T00:38:02.724Z,17.40
2023-01-18T00:39:02.744Z,18.40
2023-01-18T00:40:02.681Z,17.70
2023-01-18T00:41:02.700Z,19.10
2023-01-18T00:42:02.665Z,19.00
2023-01-18T00:43:02.702Z,18.30
2023-01-18T00:44:02.629Z,18.00
2023-01-18T00:45:02.637Z,18.90
2023-01-18T00:46:02.651Z,18.10
2023-01-18T00:47:02.621Z,17.90
2023-01-18T00:48:02.672Z,17.30
2023-01-18T00:49:02.565Z,18.10
2023-01-18T00:50:02.550Z,19.00
2023-01-18T00:51:02.544Z,18.90
2023-01-18T00:52:02.560Z,17.40
2023-01-18T00:53:02.569Z,18.00
2023-01-18T00:54:02.525Z,18.10
2023-01-18T00:55:02.511Z,18.70
2023-01-18T00:56:02.513Z,18.00
2023-01-18T00:57:02.460Z,16.00
2023-01-18T00:58:02.485Z,18.00
2023-01-18T00:59:02.456Z,15.40
2023-01-18T01:00:02.457Z,15.90
2023-01-18T01:01:02.492Z,16.20
2023-01-18T01:02:02.547Z,16.10
2023-01-18T01:03:02.451Z,16.00
2023-01-18T01:04:02.434Z,16.00
2023-01-18T01:05:02.368Z,16.40
2023-01-18T01:06:02.373Z,15.70
2023-01-18T01:07:02.360Z,16.60
2023-01-18T01:08:02.344Z,17.10
2023-01-18T01:09:02.316Z,16.40
2023-01-18T01:10:02.329Z,15.60
2023-01-18T01:11:02.319Z,16.00
2023-01-18T01:12:02.293Z,17.30
2023-01-18T01:13:02.280Z,16.40
2023-01-18T01:14:02.258Z,16.30
2023-01-18T01:15:02.255Z,15.90
2023-01-18T01:16:02.251Z,15.10
2023-01-18T01:17:02.211Z,15.50
2023-01-18T01:18:02.226Z,15.70
2023-01-18T01:19:02.198Z,15.30
2023-01-18T01:20:02.179Z,14.80
2023-01-18T01:21:02.177Z,15.30
2023-01-18T01:22:02.165Z,14.90
2023-01-18T01:23:02.156Z,15.30
2023-01-18T01:24:02.144Z,15.00
2023-01-18T01:25:02.155Z,15.60
2023-01-18T01:26:02.173Z,15.90
2023-01-18T01:27:02.112Z,16.50
2023-01-18T01:28:02.100Z,16.00
2023-01-18T01:29:02.061Z,17.50
2023-01-18T01:30:02.058Z,17.60
2023-01-18T01:31:02.117Z,15.90
2023-01-18T01:32:02.056Z,14.80
2023-01-18T01:33:02.024Z,14.00
2023-01-18T01:34:02.015Z,15.60
2023-01-18T01:35:01.989Z,14.80
2023-01-18T01:36:02.017Z,14.40
2023-01-18T01:37:01.980Z,14.30
2023-01-18T01:38:01.955Z,13.70
2023-01-18T01:39:01.976Z,14.00
2023-01-18T01:40:01.922Z,14.90
2023-01-18T01:41:01.944Z,13.80
2023-01-18T01:42:01.954Z,14.10
2023-01-18T01:43:01.928Z,13.70
2023-01-18T01:44:01.890Z,14.00
2023-01-18T01:45:01.887Z,13.40
2023-01-18T01:46:02.009Z,13.30
2023-01-18T01:47:01.884Z,14.30
2023-01-18T01:48:01.849Z,14.20
2023-01-18T01:49:01.832Z,13.30
2023-01-18T01:50:01.820Z,14.70
2023-01-18T01:51:01.780Z,14.80
2023-01-18T01:52:01.781Z,14.00
2023-01-18T01:53:01.805Z,14.10
2023-01-18T01:54:01.778Z,14.00
2023-01-18T01:55:01.763Z,13.80
2023-01-18T01:56:01.738Z,13.90
2023-01-18T01:57:01.717Z,14.00
2023-01-18T01:58:01.734Z,13.40
2023-01-18T01:59:01.678Z,13.20
2023-01-18T02:00:01.705Z,13.40
2023-01-18T02:01:01.737Z,13.80
2023-01-18T02:02:01.712Z,13.30
2023-01-18T02:03:01.870Z,14.20
2023-01-18T02:04:01.657Z,13.80
2023-01-18T02:05:01.625Z,13.40
2023-01-18T02:06:01.614Z,12.50
2023-01-18T02:07:01.606Z,13.50
2023-01-18T02:08:01.606Z,14.20
2023-01-18T02:09:01.578Z,15.10
2023-01-18T02:10:01.566Z,13.80
2023-01-18T02:11:01.531Z,12.70
2023-01-18T02:12:01.530Z,13.90
2023-01-18T02:13:01.576Z,12.80
2023-01-18T02:14:01.544Z,12.90
2023-01-18T02:15:01.485Z,13.20
2023-01-18T02:16:01.531Z,12.70
2023-01-18T02:17:01.549Z,13.40
2023-01-18T02:18:01.472Z,13.20
2023-01-18T02:19:01.431Z,12.80
2023-01-18T02:20:01.421Z,13.00
2023-01-18T02:21:01.400Z,12.70
2023-01-18T02:22:01.428Z,12.50
2023-01-18T02:23:01.370Z,12.50
2023-01-18T02:24:01.397Z,12.60
2023-01-18T02:25:01.372Z,12.40
2023-01-18T02:26:01.345Z,11.30
2023-01-18T02:27:01.341Z,12.60
2023-01-18T02:28:01.334Z,12.40
2023-01-18T02:29:01.304Z,12.00
2023-01-18T02:30:01.308Z,11.50
2023-01-18T02:31:01.317Z,11.10
2023-01-18T02:32:01.304Z,11.20
2023-01-18T02:33:01.271Z,12.00
2023-01-18T02:34:01.248Z,11.90
2023-01-18T02:35:01.233Z,11.50
2023-01-18T02:36:01.259Z,12.00
2023-01-18T02:37:01.197Z,12.10
2023-01-18T02:38:01.210Z,12.40
2023-01-18T02:39:01.191Z,12.50
2023-01-18T02:40:01.160Z,11.60
2023-01-18T02:41:01.167Z,12.00
2023-01-18T02:42:01.154Z,11.90
2023-01-18T02:43:01.127Z,11.20
2023-01-18T02:44:01.122Z,12.40
2023-01-18T02:45:01.128Z,12.00
2023-01-18T02:46:01.112Z,12.40
2023-01-18T02:47:01.077Z,13.30
2023-01-18T02:48:01.059Z,12.60
2023-01-18T02:49:01.046Z,11.30
2023-01-18T02:50:01.058Z,12.50
2023-01-18T02:51:01.021Z,12.30
2023-01-18T02:52:01.052Z,12.80
2023-01-18T02:53:01.012Z,13.00
2023-01-18T02:54:01.012Z,12.60
2023-01-18T02:55:00.967Z,12.40
2023-01-18T02:56:01.032Z,12.00
2023-01-18T02:57:00.966Z,12.00
2023-01-18T02:58:00.967Z,12.10
2023-01-18T02:59:00.966Z,12.60
2023-01-18T03:00:00.948Z,11.80
2023-01-18T03:01:00.928Z,12.00
2023-01-18T03:02:00.992Z,12.60
2023-01-18T03:03:01.379Z,12.30
2023-01-18T03:04:00.913Z,11.60
2023-01-18T03:05:00.859Z,12.20
2023-01-18T03:06:00.831Z,12.40
2023-01-18T03:07:00.826Z,11.30
2023-01-18T03:08:00.823Z,12.80
2023-01-18T03:09:00.830Z,12.70
2023-01-18T03:10:00.799Z,11.60
2023-01-18T03:11:00.778Z,11.80
2023-01-18T03:12:00.786Z,12.10
2023-01-18T03:13:00.816Z,12.80
2023-01-18T03:14:00.748Z,12.40
2023-01-18T03:15:00.722Z,12.60
2023-01-18T03:16:00.725Z,13.10
2023-01-18T03:17:00.743Z,13.30
2023-01-18T03:18:00.694Z,12.80
2023-01-18T03:19:00.698Z,13.60
2023-01-18T03:20:00.668Z,14.00
2023-01-18T03:21:00.655Z,13.20
2023-01-18T03:22:00.668Z,13.20
2023-01-18T03:23:01.049Z,13.20
2023-01-18T03:24:00.636Z,12.20
2023-01-18T03:25:00.622Z,13.00
2023-01-18T03:26:00.600Z,12.80
2023-01-18T03:27:00.622Z,13.20
2023-01-18T03:28:00.575Z,13.90
2023-01-18T03:29:00.580Z,13.20
2023-01-18T03:30:00.604Z,14.20
2023-01-18T03:31:00.622Z,13.70
2023-01-18T03:32:00.526Z,12.60
2023-01-18T03:33:00.679Z,12.90
2023-01-18T03:34:00.516Z,12.90
2023-01-18T03:35:00.464Z,12.90
2023-01-18T03:36:00.491Z,12.40
2023-01-18T03:37:00.472Z,12.50
2023-01-18T03:38:00.465Z,11.10
2023-01-18T03:39:00.450Z,11.80
2023-01-18T03:40:00.473Z,12.00
2023-01-18T03:41:00.389Z,12.10
2023-01-18T03:42:00.421Z,12.20
2023-01-18T03:43:00.426Z,12.20
2023-01-18T03:44:00.376Z,13.10
2023-01-18T03:45:00.379Z,11.90
2023-01-18T03:46:00.386Z,11.40
2023-01-18T03:47:00.329Z,11.50
2023-01-18T03:48:00.350Z,11.70
2023-01-18T03:49:00.312Z,11.70
2023-01-18T03:50:00.299Z,11.50
2023-01-18T03:51:00.315Z,12.20
2023-01-18T03:52:00.287Z,12.80
2023-01-18T03:53:00.352Z,12.40
2023-01-18T03:54:00.230Z,12.20
2023-01-18T03:55:00.224Z,12.60
2023-01-18T03:56:00.239Z,12.00
2023-01-18T03:57:00.199Z,11.90
2023-01-18T03:58:00.229Z,11.80
2023-01-18T03:59:00.180Z,11.90
2023-01-18T04:00:00.184Z,11.70
2023-01-18T04:01:00.197Z,11.90
2023-01-18T04:02:00.227Z,11.80
2023-01-18T04:03:00.680Z,11.30
2023-01-18T04:04:00.174Z,11.70
2023-01-18T04:05:00.127Z,11.70
2023-01-18T04:06:00.119Z,11.80
2023-01-18T04:07:00.097Z,11.80
2023-01-18T04:08:00.109Z,11.60
2023-01-18T04:09:00.069Z,12.40
2023-01-18T04:10:00.072Z,12.20
2023-01-18T04:11:00.052Z,11.90
2023-01-18T04:12:00.021Z,11.80
2023-01-18T04:13:00.447Z,13.20
2023-01-18T04:13:59.981Z,12.80
2023-01-18T04:14:59.987Z,13.10
2023-01-18T04:16:00.035Z,13.90
2023-01-18T04:16:59.954Z,13.10
2023-01-18T04:17:59.961Z,14.10
2023-01-18T04:18:59.929Z,14.60
2023-01-18T04:19:59.924Z,14.60
2023-01-18T04:20:59.942Z,12.70
2023-01-18T04:21:59.878Z,13.60
2023-01-18T04:23:00.468Z,13.20
2023-01-18T04:23:59.879Z,14.20
2023-01-18T04:24:59.830Z,15.60
2023-01-18T04:25:59.852Z,14.40
2023-01-18T04:26:59.862Z,14.00
2023-01-18T04:27:59.812Z,13.90
2023-01-18T04:28:59.798Z,13.30
2023-01-18T04:29:59.786Z,13.60
2023-01-18T04:30:59.827Z,13.30
2023-01-18T04:31:59.777Z,13.70
2023-01-18T04:33:00.192Z,13.20
2023-01-18T04:33:59.740Z,13.50
2023-01-18T04:34:59.752Z,12.70
2023-01-18T04:35:59.727Z,13.30
2023-01-18T04:36:59.723Z,13.10
2023-01-18T04:37:59.674Z,13.50
2023-01-18T04:38:59.705Z,13.50
2023-01-18T04:39:59.647Z,13.40
2023-01-18T04:40:59.627Z,12.20
2023-01-18T04:41:59.652Z,11.80
2023-01-18T04:43:00.063Z,11.80
2023-01-18T04:43:59.620Z,11.50
2023-01-18T04:44:59.585Z,10.50
2023-01-18T04:45:59.605Z,10.90
2023-01-18T04:46:59.581Z,11.10
2023-01-18T04:47:59.590Z,11.10
2023-01-18T04:48:59.535Z,10.60
2023-01-18T04:49:59.566Z,10.60
2023-01-18T04:50:59.528Z,9.90
2023-01-18T04:51:59.502Z,9.90
2023-01-18T04:53:00.082Z,9.60
2023-01-18T04:53:59.522Z,9.00
2023-01-18T04:54:59.480Z,9.90
2023-01-18T04:55:59.443Z,10.00
2023-01-18T04:56:59.465Z,8.90
2023-01-18T04:57:59.421Z,9.00
2023-01-18T04:58:59.428Z,8.10
2023-01-18T04:59:59.421Z,8.60
2023-01-18T05:00:59.464Z,8.70
2023-01-18T05:01:59.433Z,8.70
2023-01-18T05:02:59.755Z,8.80
2023-01-18T05:03:59.364Z,8.90
2023-01-18T05:04:59.342Z,8.20
2023-01-18T05:05:59.352Z,8.80
2023-01-18T05:06:59.309Z,7.40
2023-01-18T05:07:59.306Z,8.30
2023-01-18T05:08:59.270Z,7.50
2023-01-18T05:09:59.259Z,8.20
2023-01-18T05:10:59.300Z,7.80
2023-01-18T05:11:59.243Z,8.40
2023-01-18T05:12:59.729Z,7.70
2023-01-18T05:13:59.257Z,7.80
2023-01-18T05:14:59.209Z,8.20
2023-01-18T05:15:59.253Z,8.20
2023-01-18T05:16:59.233Z,7.70
2023-01-18T05:17:59.165Z,7.60
2023-01-18T05:18:59.189Z,8.40
2023-01-18T05:19:59.153Z,8.40
2023-01-18T05:20:59.135Z,7.50
2023-01-18T05:21:59.120Z,8.60
2023-01-18T05:22:59.508Z,8.80
2023-01-18T05:23:59.105Z,9.10
2023-01-18T05:24:59.122Z,9.00
2023-01-18T05:25:59.109Z,7.80
2023-01-18T05:26:59.049Z,8.40
2023-01-18T05:27:59.041Z,8.30
2023-01-18T05:28:59.038Z,6.90
2023-01-18T05:29:59.048Z,7.20
2023-01-18T05:30:59.010Z,6.80
2023-01-18T05:31:58.992Z,6.80
2023-01-18T05:32:59.357Z,6.90
2023-01-18T05:33:59.013Z,6.90
2023-01-18T05:34:58.976Z,6.40
2023-01-18T05:35:58.978Z,6.30
2023-01-18T05:36:58.912Z,6.40
2023-01-18T05:37:58.938Z,7.20
2023-01-18T05:38:58.932Z,6.70
2023-01-18T05:39:58.904Z,6.40
2023-01-18T05:40:58.892Z,6.70
2023-01-18T05:42:00.256Z,7.20
2023-01-18T05:42:59.178Z,5.70
2023-01-18T05:43:58.864Z,6.00
2023-01-18T05:44:58.824Z,5.70
2023-01-18T05:45:58.830Z,6.30
2023-01-18T05:46:58.794Z,6.80
2023-01-18T05:47:58.809Z,6.10
2023-01-18T05:48:58.779Z,6.20
2023-01-18T05:49:58.785Z,6.30
2023-01-18T05:50:58.752Z,7.70
2023-01-18T05:51:58.739Z,7.20
2023-01-18T05:52:59.202Z,6.60
2023-01-18T05:53:58.719Z,6.60
2023-01-18T05:54:58.708Z,7.40
2023-01-18T05:55:58.716Z,6.80
2023-01-18T05:56:58.687Z,6.50
2023-01-18T05:57:58.649Z,6.00
2023-01-18T05:58:58.654Z,6.20
2023-01-18T05:59:58.645Z,6.70
2023-01-18T06:00:58.642Z,5.90
2023-01-18T06:01:58.728Z,6.50
2023-01-18T06:02:59.072Z,6.40
2023-01-18T06:03:58.582Z,6.40
2023-01-18T06:04:58.592Z,6.80
2023-01-18T06:05:58.570Z,6.10
2023-01-18T06:06:58.579Z,6.10
2023-01-18T06:07:58.536Z,7.00
2023-01-18T06:08:58.514Z,6.80
2023-01-18T06:09:58.520Z,13.80
2023-01-18T06:10:58.527Z,7.30
2023-01-18T06:11:58.509Z,7.20
2023-01-18T06:12:58.748Z,6.90
2023-01-18T06:13:58.466Z,8.00
2023-01-18T06:14:58.458Z,7.50
2023-01-18T06:15:58.445Z,7.80
2023-01-18T06:16:58.456Z,8.10
2023-01-18T06:17:58.403Z,8.20
2023-01-18T06:18:58.391Z,8.60
2023-01-18T06:19:58.389Z,7.80
2023-01-18T06:21:01.135Z,8.00
2023-01-18T06:21:58.357Z,9.40
2023-01-18T06:22:58.895Z,9.10
2023-01-18T06:23:58.347Z,9.20
2023-01-18T06:24:58.330Z,8.80
2023-01-18T06:25:58.317Z,9.50
2023-01-18T06:26:58.279Z,8.70
2023-01-18T06:27:58.281Z,8.80
2023-01-18T06:28:58.300Z,8.10
2023-01-18T06:29:58.256Z,8.80
2023-01-18T06:30:58.235Z,7.80
2023-01-18T06:31:58.259Z,7.30
2023-01-18T06:32:58.521Z,8.00
2023-01-18T06:33:58.255Z,8.30
2023-01-18T06:34:58.191Z,7.40
2023-01-18T06:35:58.176Z,7.50
2023-01-18T06:36:58.178Z,7.20
2023-01-18T06:37:58.156Z,8.10
2023-01-18T06:38:58.154Z,7.80
2023-01-18T06:39:58.117Z,7.00
2023-01-18T06:40:58.117Z,7.60
2023-01-18T06:41:58.108Z,6.80
2023-01-18T06:42:58.676Z,7.30
2023-01-18T06:43:58.130Z,7.40
2023-01-18T06:44:58.101Z,7.70
2023-01-18T06:45:58.193Z,6.20
2023-01-18T06:46:58.055Z,5.50
2023-01-18T06:47:58.057Z,5.40
2023-01-18T06:48:58.006Z,4.90
2023-01-18T06:49:58.021Z,4.80
2023-01-18T06:50:58.019Z,4.60
2023-01-18T06:51:57.980Z,4.20
2023-01-18T06:52:58.315Z,4.80
2023-01-18T06:53:57.993Z,4.20
2023-01-18T06:54:57.955Z,4.40
2023-01-18T06:55:57.928Z,4.70
2023-01-18T06:56:57.905Z,5.20
2023-01-18T06:57:57.888Z,6.20
2023-01-18T06:58:57.906Z,5.70
2023-01-18T06:59:57.897Z,5.60
2023-01-18T07:00:57.962Z,5.20
2023-01-18T07:01:57.968Z,4.90
2023-01-18T07:02:58.121Z,4.40
2023-01-18T07:03:57.894Z,4.40
2023-01-18T07:04:57.805Z,4.90
2023-01-18T07:05:57.796Z,4.50
2023-01-18T07:06:57.792Z,5.20
2023-01-18T07:07:57.788Z,5.00
2023-01-18T07:08:57.774Z,5.00
2023-01-18T07:09:57.754Z,4.70
2023-01-18T07:10:57.738Z,4.70
2023-01-18T07:11:57.708Z,4.70
2023-01-18T07:12:58.052Z,4.60
2023-01-18T07:13:57.712Z,4.70
2023-01-18T07:14:57.681Z,5.50
2023-01-18T07:15:59.982Z,4.90
2023-01-18T07:16:57.722Z,5.30
2023-01-18T07:17:57.640Z,5.70
2023-01-18T07:18:57.622Z,5.90
2023-01-18T07:19:57.683Z,5.40
2023-01-18T07:20:57.666Z,4.60
2023-01-18T07:21:57.612Z,4.20
2023-01-18T07:22:57.867Z,4.40
2023-01-18T07:23:57.626Z,4.70
2023-01-18T07:24:57.586Z,4.70
2023-01-18T07:25:57.597Z,4.60
2023-01-18T07:26:57.535Z,4.10
2023-01-18T07:27:57.527Z,4.90
2023-01-18T07:28:57.577Z,4.60
2023-01-18T07:29:57.494Z,3.70
2023-01-18T07:30:57.492Z,4.00
2023-01-18T07:31:57.552Z,3.60
2023-01-18T07:32:57.917Z,3.60
2023-01-18T07:33:57.440Z,4.60
2023-01-18T07:34:59.431Z,4.70
2023-01-18T07:35:57.440Z,3.60
2023-01-18T07:36:57.436Z,3.70
2023-01-18T07:37:57.436Z,4.40
2023-01-18T07:38:57.421Z,3.50
2023-01-18T07:39:57.358Z,3.80
2023-01-18T07:40:57.357Z,3.40
2023-01-18T07:41:57.360Z,3.80
2023-01-18T07:42:57.773Z,4.10
2023-01-18T07:43:57.313Z,4.00
2023-01-18T07:44:57.322Z,3.50
2023-01-18T07:45:57.323Z,3.60
2023-01-18T07:46:57.279Z,3.90
2023-01-18T07:47:57.265Z,4.60
2023-01-18T07:48:57.242Z,3.60
2023-01-18T07:49:57.241Z,3.20
2023-01-18T07:50:57.233Z,3.30
2023-01-18T07:51:57.196Z,3.40
2023-01-18T07:52:57.579Z,3.50
2023-01-18T07:53:57.176Z,3.40
2023-01-18T07:54:57.213Z,3.60
2023-01-18T07:55:57.168Z,3.80
2023-01-18T07:56:57.137Z,4.20
2023-01-18T07:57:57.136Z,3.30
2023-01-18T07:58:57.163Z,3.90
2023-01-18T07:59:57.126Z,4.80
2023-01-18T08:00:57.106Z,4.60
2023-01-18T08:01:57.118Z,8.10
2023-01-18T08:02:59.094Z,8.50
2023-01-18T08:03:57.114Z,9.20
2023-01-18T08:04:57.061Z,9.60
2023-01-18T08:05:57.023Z,7.60
2023-01-18T08:06:57.046Z,5.30
2023-01-18T08:07:57.043Z,4.80
2023-01-18T08:08:57.033Z,4.90
2023-01-18T08:09:56.983Z,5.20
2023-01-18T08:10:57.022Z,4.50
2023-01-18T08:11:56.993Z,4.10
2023-01-18T08:12:57.401Z,4.10
2023-01-18T08:13:56.927Z,3.60
2023-01-18T08:14:56.944Z,3.70
2023-01-18T08:15:56.941Z,4.00
2023-01-18T08:16:56.926Z,3.90
2023-01-18T08:17:56.873Z,4.70
2023-01-18T08:18:56.887Z,4.50
2023-01-18T08:19:56.867Z,4.00
2023-01-18T08:20:56.899Z,4.50
2023-01-18T08:21:56.839Z,4.70
2023-01-18T08:22:57.364Z,4.00
2023-01-18T08:23:56.806Z,3.90
2023-01-18T08:24:56.825Z,4.10
2023-01-18T08:25:56.777Z,4.20
2023-01-18T08:26:56.769Z,4.60
2023-01-18T08:27:56.746Z,4.90
2023-01-18T08:28:56.812Z,4.30
2023-01-18T08:29:56.753Z,4.20
2023-01-18T08:30:56.746Z,4.70
2023-01-18T08:31:56.710Z,5.00
2023-01-18T08:32:57.033Z,5.10
2023-01-18T08:33:56.667Z,27.60
2023-01-18T08:34:56.664Z,5.60
2023-01-18T08:35:56.674Z,15.30
2023-01-18T08:36:56.659Z,12.50
2023-01-18T08:37:56.674Z,6.80
2023-01-18T08:38:56.618Z,6.80
2023-01-18T08:39:56.619Z,8.00
2023-01-18T08:40:56.614Z,6.40
2023-01-18T08:41:56.553Z,6.20
2023-01-18T08:42:56.929Z,5.40
2023-01-18T08:43:56.586Z,6.00
2023-01-18T08:44:56.533Z,5.70
2023-01-18T08:45:56.556Z,6.00
2023-01-18T08:46:56.538Z,6.00
2023-01-18T08:47:56.514Z,6.60
2023-01-18T08:48:56.515Z,6.50
2023-01-18T08:49:56.480Z,6.40
2023-01-18T08:50:56.463Z,7.30
2023-01-18T08:51:56.489Z,5.60
2023-01-18T08:52:56.784Z,6.40
2023-01-18T08:53:56.407Z,6.90
2023-01-18T08:54:56.432Z,6.70
2023-01-18T08:55:56.424Z,6.70
2023-01-18T08:56:56.377Z,6.50
2023-01-18T08:57:56.368Z,3.70
2023-01-18T08:58:56.416Z,3.80
2023-01-18T08:59:56.386Z,4.20
2023-01-18T09:00:56.385Z,3.40
2023-01-18T09:01:56.399Z,5.30
2023-01-18T09:02:56.528Z,4.50
2023-01-18T09:03:56.374Z,4.20
2023-01-18T09:04:56.349Z,5.00
2023-01-18T09:05:56.292Z,4.10
2023-01-18T09:06:56.267Z,5.80
2023-01-18T09:07:56.251Z,5.90
2023-01-18T09:08:56.229Z,5.40
2023-01-18T09:09:56.231Z,6.20
2023-01-18T09:10:56.223Z,5.70
2023-01-18T09:11:56.185Z,6.10
2023-01-18T09:12:56.610Z,5.80
2023-01-18T09:14:00.997Z,5.80
2023-01-18T09:14:56.154Z,5.80
2023-01-18T09:15:56.133Z,4.40
2023-01-18T09:16:56.125Z,4.10
2023-01-18T09:17:56.139Z,4.70
2023-01-18T09:18:56.195Z,4.90
2023-01-18T09:19:56.083Z,4.70
2023-01-18T09:20:56.061Z,5.00
2023-01-18T09:21:56.040Z,7.10
2023-01-18T09:22:56.305Z,7.00
2023-01-18T09:23:56.060Z,6.50
2023-01-18T09:24:56.011Z,6.40
2023-01-18T09:25:56.007Z,5.60
2023-01-18T09:26:55.998Z,3.70
2023-01-18T09:27:55.995Z,4.10
2023-01-18T09:28:55.968Z,3.90
2023-01-18T09:29:56.316Z,4.40
2023-01-18T09:30:55.951Z,4.30
2023-01-18T09:31:55.948Z,4.40
2023-01-18T09:32:56.201Z,4.10
2023-01-18T09:33:57.359Z,4.30
2023-01-18T09:34:55.892Z,4.00
2023-01-18T09:35:55.898Z,4.00
2023-01-18T09:36:55.854Z,4.10
2023-01-18T09:37:55.863Z,4.10
2023-01-18T09:38:55.860Z,4.20
2023-01-18T09:39:55.821Z,3.30
2023-01-18T09:40:55.840Z,4.20
2023-01-18T09:41:55.801Z,4.10
2023-01-18T09:42:55.896Z,3.80
2023-01-18T09:43:55.755Z,3.80
2023-01-18T09:44:55.792Z,4.20
2023-01-18T09:45:55.768Z,4.30
2023-01-18T09:46:55.814Z,4.80
2023-01-18T09:47:55.720Z,3.80
2023-01-18T09:48:55.709Z,11.40
2023-01-18T09:49:55.737Z,4.80
2023-01-18T09:50:55.663Z,5.90
2023-01-18T09:51:55.697Z,17.00
2023-01-18T09:52:55.813Z,4.60
2023-01-18T09:53:55.632Z,4.70
2023-01-18T09:54:55.619Z,3.20
2023-01-18T09:55:55.610Z,2.90
2023-01-18T09:56:55.606Z,3.70
2023-01-18T09:57:55.602Z,3.40
2023-01-18T09:58:55.615Z,3.50
2023-01-18T09:59:55.588Z,4.10
2023-01-18T10:00:55.637Z,2.70
2023-01-18T10:01:56.260Z,3.00
2023-01-18T10:02:55.624Z,2.70
2023-01-18T10:03:55.531Z,3.80
2023-01-18T10:04:55.485Z,3.20
2023-01-18T10:05:55.477Z,2.80
2023-01-18T10:06:55.501Z,3.00
2023-01-18T10:07:55.455Z,2.80
2023-01-18T10:08:55.467Z,2.60
2023-01-18T10:09:55.460Z,2.60
2023-01-18T10:10:55.426Z,2.80
2023-01-18T10:11:55.407Z,2.80
2023-01-18T10:12:55.386Z,2.20
2023-01-18T10:13:55.396Z,3.00
2023-01-18T10:14:55.366Z,2.80
2023-01-18T10:15:55.396Z,2.90
2023-01-18T10:16:55.678Z,2.80
2023-01-18T10:17:55.337Z,2.90
2023-01-18T10:18:55.330Z,2.60
2023-01-18T10:19:55.368Z,3.20
2023-01-18T10:20:55.343Z,3.20
2023-01-18T10:21:55.299Z,2.90
2023-01-18T10:22:55.282Z,3.00
2023-01-18T10:23:55.235Z,2.60
2023-01-18T10:24:55.228Z,3.00
2023-01-18T10:25:55.253Z,2.90
2023-01-18T10:26:55.220Z,3.00
2023-01-18T10:27:55.195Z,3.20
2023-01-18T10:28:55.184Z,3.40
2023-01-18T10:29:55.172Z,2.60
2023-01-18T10:30:55.177Z,2.70
2023-01-18T10:31:55.312Z,3.00
2023-01-18T10:32:55.154Z,3.10
2023-01-18T10:33:55.139Z,2.40
2023-01-18T10:34:55.110Z,4.00
2023-01-18T10:35:55.133Z,3.10
2023-01-18T10:36:55.215Z,2.80
2023-01-18T10:37:55.073Z,2.90
2023-01-18T10:38:55.039Z,3.00
2023-01-18T10:39:55.064Z,2.50
2023-01-18T10:40:55.024Z,2.60
2023-01-18T10:41:55.017Z,3.20
2023-01-18T10:42:55.026Z,4.50
2023-01-18T10:43:55.017Z,3.00
2023-01-18T10:44:54.965Z,2.70
2023-01-18T10:45:55.015Z,5.10
2023-01-18T10:46:54.958Z,4.30
2023-01-18T10:47:54.933Z,4.30
2023-01-18T10:48:54.959Z,3.70
2023-01-18T10:49:54.951Z,3.40
2023-01-18T10:50:54.938Z,3.50
2023-01-18T10:51:54.892Z,3.40
2023-01-18T10:52:54.893Z,3.60
2023-01-18T10:53:54.869Z,3.50
2023-01-18T10:54:54.833Z,3.40
2023-01-18T10:55:54.832Z,3.60
2023-01-18T10:56:54.850Z,3.50
2023-01-18T10:57:54.842Z,3.00
2023-01-18T10:58:54.800Z,3.20
2023-01-18T10:59:54.800Z,3.20
2023-01-18T11:00:54.862Z,2.60
2023-01-18T11:01:54.986Z,3.60
2023-01-18T11:02:54.735Z,3.20
2023-01-18T11:03:54.713Z,3.20
2023-01-18T11:04:54.713Z,3.90
2023-01-18T11:05:54.710Z,3.10
2023-01-18T11:06:54.683Z,3.70
2023-01-18T11:07:54.685Z,4.00
2023-01-18T11:08:54.647Z,4.30
2023-01-18T11:09:54.659Z,3.60
2023-01-18T11:10:54.645Z,4.00
2023-01-18T11:11:54.646Z,4.20
2023-01-18T11:12:54.592Z,3.80
2023-01-18T11:13:54.611Z,4.00
2023-01-18T11:14:54.586Z,3.60
2023-01-18T11:15:54.583Z,3.60
2023-01-18T11:16:54.542Z,5.50
2023-01-18T11:17:54.567Z,5.30
2023-01-18T11:18:54.543Z,4.10
2023-01-18T11:19:54.546Z,3.90
2023-01-18T11:20:54.499Z,3.70
2023-01-18T11:21:54.553Z,4.20
2023-01-18T11:22:54.482Z,4.80
2023-01-18T11:23:54.470Z,4.50
2023-01-18T11:24:54.500Z,4.00
2023-01-18T11:25:54.432Z,3.90
2023-01-18T11:26:54.436Z,3.80
2023-01-18T11:27:54.455Z,3.40
2023-01-18T11:28:54.432Z,3.40
2023-01-18T11:29:54.395Z,3.70
2023-01-18T11:30:54.395Z,3.40
2023-01-18T11:31:54.491Z,3.20
2023-01-18T11:32:54.348Z,2.60
2023-01-18T11:33:54.368Z,2.80
2023-01-18T11:34:54.341Z,2.60
2023-01-18T11:35:54.341Z,2.80
2023-01-18T11:36:54.312Z,2.80
2023-01-18T11:37:54.273Z,3.10
2023-01-18T11:38:54.274Z,3.30
2023-01-18T11:39:54.312Z,2.80
2023-01-18T11:40:54.257Z,3.10
2023-01-18T11:41:54.242Z,3.20
2023-01-18T11:42:54.251Z,3.40
2023-01-18T11:43:54.231Z,3.40
2023-01-18T11:44:54.185Z,3.40
2023-01-18T11:45:54.310Z,3.50
2023-01-18T11:46:54.186Z,2.90
2023-01-18T11:47:54.178Z,2.40
2023-01-18T11:48:54.155Z,2.80
2023-01-18T11:49:54.116Z,3.00
2023-01-18T11:50:54.119Z,3.30
2023-01-18T11:51:54.151Z,3.00
2023-01-18T11:52:54.084Z,3.10
2023-01-18T11:53:54.100Z,4.20
2023-01-18T11:54:54.074Z,3.70
2023-01-18T11:55:54.057Z,4.20
2023-01-18T11:56:54.048Z,4.40
2023-01-18T11:57:54.086Z,4.00
2023-01-18T11:58:54.001Z,3.80
2023-01-18T11:59:54.031Z,3.80
2023-01-18T12:00:54.031Z,3.90
2023-01-18T12:01:54.085Z,3.70
2023-01-18T12:02:53.953Z,4.30
2023-01-18T12:03:53.988Z,4.70
2023-01-18T12:04:53.947Z,4.50
2023-01-18T12:05:53.940Z,5.20
2023-01-18T12:06:53.909Z,4.90
2023-01-18T12:07:53.913Z,5.10
2023-01-18T12:08:53.884Z,4.10
2023-01-18T12:09:53.860Z,4.00
2023-01-18T12:10:53.859Z,3.40
2023-01-18T12:11:53.882Z,3.50
2023-01-18T12:12:53.865Z,3.40
2023-01-18T12:13:53.815Z,3.70
2023-01-18T12:14:53.793Z,3.80
2023-01-18T12:15:53.783Z,3.30
2023-01-18T12:16:53.851Z,3.50
2023-01-18T12:18:11.344Z,3.60
2023-01-18T12:18:53.867Z,3.30
2023-01-18T12:19:53.752Z,4.00
2023-01-18T12:20:53.718Z,3.70
2023-01-18T12:21:53.744Z,3.50
2023-01-18T12:22:53.727Z,3.50
2023-01-18T12:23:53.727Z,4.00
2023-01-18T12:24:53.692Z,4.40
2023-01-18T12:26:06.829Z,3.80
2023-01-18T12:26:53.668Z,4.10
2023-01-18T12:27:53.649Z,4.10
2023-01-18T12:28:53.721Z,4.10
2023-01-18T12:29:53.673Z,3.60
2023-01-18T12:30:53.627Z,4.10
2023-01-18T12:31:53.619Z,4.10
2023-01-18T12:32:53.569Z,4.00
2023-01-18T12:33:53.560Z,4.00
2023-01-18T12:34:53.618Z,4.70
2023-01-18T12:35:53.584Z,3.70
2023-01-18T12:36:53.519Z,3.70
2023-01-18T12:37:53.531Z,4.50
2023-01-18T12:38:53.524Z,4.30
2023-01-18T12:39:53.503Z,4.30
2023-01-18T12:40:53.480Z,5.10
2023-01-18T12:41:53.469Z,4.30
2023-01-18T12:42:53.437Z,4.60
2023-01-18T12:43:53.443Z,4.90
2023-01-18T12:44:53.446Z,5.70
2023-01-18T12:45:53.482Z,5.70
2023-01-18T12:46:53.397Z,5.50
2023-01-18T12:47:53.395Z,5.40
2023-01-18T12:48:53.402Z,5.20
2023-01-18T12:49:53.363Z,5.80
2023-01-18T12:50:53.369Z,4.90
2023-01-18T12:51:53.357Z,4.80
2023-01-18T12:52:53.356Z,5.30
2023-01-18T12:53:53.328Z,5.30
2023-01-18T12:54:53.328Z,5.30
2023-01-18T12:55:53.338Z,5.70
2023-01-18T12:56:53.271Z,5.10
2023-01-18T12:57:53.331Z,5.40
2023-01-18T12:58:53.225Z,5.50
2023-01-18T12:59:53.280Z,5.90
2023-01-18T13:00:53.253Z,5.80
2023-01-18T13:01:53.265Z,6.00
2023-01-18T13:02:53.217Z,5.90
2023-01-18T13:03:53.188Z,5.50
2023-01-18T13:04:53.152Z,5.70
2023-01-18T13:05:53.134Z,6.00
2023-01-18T13:06:53.178Z,5.50
2023-01-18T13:07:53.136Z,5.80